sensor_id;sensor_type;location;lat;lon;timestamp;pressure;altitude;pressure_sealevel;temperature;humidity
11053;BME280;55230;42.602;23.470;2022-12-29T00:00:10;94413.94;;;3.55;100.00
11053;BME280;55230;42.602;23.470;2022-12-29T00:02:37;94439.53;;;3.78;100.00
11053;BME280;55230;42.602;23.470;2022-12-29T00:05:06;94359.81;;;3.16;100.00
11053;BME280;55230;42.602;23.470;2022-12-29T00:07:32;94221.19;;;2.35;100.00
11053;BME280;55230;42.602;23.470;2022-12-29T00:09:59;93918.34;;;0.39;100.00
11053;BME280;55230;42.602;23.470;2022-12-29T00:12:26;94402.53;;;3.48;100.00
11053;BME280;55230;42.602;23.470;2022-12-29T00:15:14;94395.25;;;3.27;100.00
11053;BME280;55230;42.602;23.470;2022-12-29T00:17:58;94310.66;;;2.75;100.00
11053;BME280;55230;42.602;23.470;2022-12-29T00:20:26;94428.81;;;3.46;100.00
11053;BME280;55230;42.602;23.470;2022-12-29T00:23:10;94353.31;;;2.96;100.00
11053;BME280;55230;42.602;23.470;2022-12-29T00:25:55;94423.06;;;3.33;100.00
11053;BME280;55230;42.602;23.470;2022-12-29T00:28:39;94423.78;;;3.16;100.00
11053;BME280;55230;42.602;23.470;2022-12-29T00:31:23;94054.41;;;0.43;100.00
11053;BME280;55230;42.602;23.470;2022-12-29T00:34:10;94417.28;;;3.00;100.00
11053;BME280;55230;42.602;23.470;2022-12-29T00:36:56;94369.91;;;2.51;100.00
11053;BME280;55230;42.602;23.470;2022-12-29T00:39:23;94342.06;;;2.27;100.00
11053;BME280;55230;42.602;23.470;2022-12-29T00:42:08;94413.00;;;2.74;100.00
11053;BME280;55230;42.602;23.470;2022-12-29T00:44:58;94423.34;;;2.93;100.00
11053;BME280;55230;42.602;23.470;2022-12-29T00:47:25;94419.88;;;2.82;100.00
11053;BME280;55230;42.602;23.470;2022-12-29T00:49:51;94417.00;;;2.44;100.00
11053;BME280;55230;42.602;23.470;2022-12-29T00:52:19;94435.75;;;2.61;100.00
11053;BME280;55230;42.602;23.470;2022-12-29T00:54:45;94401.00;;;2.36;100.00
11053;BME280;55230;42.602;23.470;2022-12-29T00:57:12;94403.34;;;2.52;100.00
11053;BME280;55230;42.602;23.470;2022-12-29T00:59:40;94212.31;;;1.25;100.00
11053;BME280;55230;42.602;23.470;2022-12-29T01:02:08;94422.44;;;2.65;100.00
11053;BME280;55230;42.602;23.470;2022-12-29T01:04:35;94417.56;;;2.77;100.00
11053;BME280;55230;42.602;23.470;2022-12-29T01:07:02;94424.44;;;2.85;100.00
11053;BME280;55230;42.602;23.470;2022-12-29T01:09:31;94418.34;;;2.88;100.00
11053;BME280;55230;42.602;23.470;2022-12-29T01:12:15;94374.13;;;2.63;100.00
11053;BME280;55230;42.602;23.470;2022-12-29T01:15:02;94370.97;;;2.36;100.00
11053;BME280;55230;42.602;23.470;2022-12-29T01:17:29;94414.09;;;2.70;100.00
11053;BME280;55230;42.602;23.470;2022-12-29T01:19:56;94381.31;;;2.52;100.00
11053;BME280;55230;42.602;23.470;2022-12-29T01:22:23;94366.75;;;2.31;100.00
11053;BME280;55230;42.602;23.470;2022-12-29T01:24:51;94238.13;;;1.24;100.00
11053;BME280;55230;42.602;23.470;2022-12-29T01:27:18;94395.03;;;2.57;100.00
11053;BME280;55230;42.602;23.470;2022-12-29T01:29:44;94402.63;;;2.55;100.00
11053;BME280;55230;42.602;23.470;2022-12-29T01:32:11;94408.28;;;2.43;100.00
11053;BME280;55230;42.602;23.470;2022-12-29T01:34:38;94410.16;;;2.43;100.00
11053;BME280;55230;42.602;23.470;2022-12-29T01:37:04;94386.66;;;1.90;100.00
11053;BME280;55230;42.602;23.470;2022-12-29T01:39:31;94405.19;;;2.38;100.00
11053;BME280;55230;42.602;23.470;2022-12-29T01:42:00;94348.50;;;1.62;100.00
11053;BME280;55230;42.602;23.470;2022-12-29T01:44:49;94400.53;;;2.17;100.00
11053;BME280;55230;42.602;23.470;2022-12-29T01:47:21;94392.94;;;2.19;100.00
11053;BME280;55230;42.602;23.470;2022-12-29T01:49:50;94294.06;;;1.45;100.00
11053;BME280;55230;42.602;23.470;2022-12-29T01:52:19;94390.59;;;2.07;100.00
11053;BME280;55230;42.602;23.470;2022-12-29T01:54:49;94346.22;;;1.64;100.00
11053;BME280;55230;42.602;23.470;2022-12-29T01:57:22;94278.31;;;1.23;100.00
11053;BME280;55230;42.602;23.470;2022-12-29T01:59:54;94335.53;;;1.57;100.00
11053;BME280;55230;42.602;23.470;2022-12-29T02:02:24;94279.09;;;1.23;100.00
11053;BME280;55230;42.602;23.470;2022-12-29T02:04:52;94225.25;;;0.35;100.00
11053;BME280;55230;42.602;23.470;2022-12-29T02:07:22;94378.66;;;1.87;100.00
11053;BME280;55230;42.602;23.470;2022-12-29T02:09:52;94344.16;;;1.40;100.00
11053;BME280;55230;42.602;23.470;2022-12-29T02:12:23;94276.66;;;1.04;100.00
11053;BME280;55230;42.602;23.470;2022-12-29T02:14:54;94227.22;;;0.85;100.00
11053;BME280;55230;42.602;23.470;2022-12-29T02:17:28;93972.47;;;-1.03;100.00
11053;BME280;55230;42.602;23.470;2022-12-29T02:20:25;94378.22;;;1.78;100.00
11053;BME280;55230;42.602;23.470;2022-12-29T02:23:13;94301.81;;;1.13;100.00
11053;BME280;55230;42.602;23.470;2022-12-29T02:25:58;94332.84;;;1.53;100.00
11053;BME280;55230;42.602;23.470;2022-12-29T02:28:49;94239.63;;;0.74;100.00
11053;BME280;55230;42.602;23.470;2022-12-29T02:31:24;94066.47;;;-0.10;100.00
11053;BME280;55230;42.602;23.470;2022-12-29T02:34:01;94372.22;;;1.88;100.00
11053;BME280;55230;42.602;23.470;2022-12-29T02:36:39;94374.22;;;1.51;100.00
11053;BME280;55230;42.602;23.470;2022-12-29T02:39:17;94368.38;;;1.82;100.00
11053;BME280;55230;42.602;23.470;2022-12-29T02:41:56;94185.84;;;0.77;100.00
11053;BME280;55230;42.602;23.470;2022-12-29T02:44:27;94347.22;;;2.03;100.00
11053;BME280;55230;42.602;23.470;2022-12-29T02:47:01;94423.34;;;2.21;100.00
11053;BME280;55230;42.602;23.470;2022-12-29T02:49:36;94256.53;;;1.54;100.00
11053;BME280;55230;42.602;23.470;2022-12-29T02:52:08;94360.31;;;2.32;100.00
11053;BME280;55230;42.602;23.470;2022-12-29T02:54:37;94362.66;;;2.45;100.00
11053;BME280;55230;42.602;23.470;2022-12-29T02:57:11;94307.59;;;1.84;100.00
11053;BME280;55230;42.602;23.470;2022-12-29T02:59:39;94361.50;;;2.42;100.00
11053;BME280;55230;42.602;23.470;2022-12-29T03:02:30;94328.38;;;2.32;100.00
11053;BME280;55230;42.602;23.470;2022-12-29T03:05:17;94365.03;;;2.71;100.00
11053;BME280;55230;42.602;23.470;2022-12-29T03:07:54;94362.69;;;2.55;100.00
11053;BME280;55230;42.602;23.470;2022-12-29T03:10:33;94308.16;;;2.14;100.00
11053;BME280;55230;42.602;23.470;2022-12-29T03:13:07;94369.88;;;2.44;100.00
11053;BME280;55230;42.602;23.470;2022-12-29T03:16:01;94276.50;;;1.88;100.00
11053;BME280;55230;42.602;23.470;2022-12-29T03:18:47;94331.44;;;2.31;100.00
11053;BME280;55230;42.602;23.470;2022-12-29T03:21:26;94383.56;;;2.43;100.00
11053;BME280;55230;42.602;23.470;2022-12-29T03:24:10;94374.53;;;2.72;100.00
11053;BME280;55230;42.602;23.470;2022-12-29T03:26:37;94260.59;;;2.02;100.00
11053;BME280;55230;42.602;23.470;2022-12-29T03:29:06;94248.44;;;2.01;100.00
11053;BME280;55230;42.602;23.470;2022-12-29T03:31:35;94334.19;;;2.59;100.00
11053;BME280;55230;42.602;23.470;2022-12-29T03:34:05;94397.81;;;2.89;100.00
11053;BME280;55230;42.602;23.470;2022-12-29T03:36:38;94368.13;;;2.90;100.00
11053;BME280;55230;42.602;23.470;2022-12-29T03:39:09;94359.41;;;2.90;100.00
11053;BME280;55230;42.602;23.470;2022-12-29T03:41:38;94273.63;;;2.28;100.00
11053;BME280;55230;42.602;23.470;2022-12-29T03:44:07;94339.13;;;2.61;100.00
11053;BME280;55230;42.602;23.470;2022-12-29T03:46:34;94357.44;;;2.69;100.00
11053;BME280;55230;42.602;23.470;2022-12-29T03:49:00;94179.63;;;1.13;100.00
11053;BME280;55230;42.602;23.470;2022-12-29T03:51:29;94312.31;;;2.08;100.00
11053;BME280;55230;42.602;23.470;2022-12-29T03:53:56;94364.44;;;2.23;100.00
11053;BME280;55230;42.602;23.470;2022-12-29T03:56:22;94370.81;;;2.04;100.00
11053;BME280;55230;42.602;23.470;2022-12-29T03:58:49;94346.38;;;1.88;100.00
11053;BME280;55230;42.602;23.470;2022-12-29T04:01:16;94253.16;;;1.06;100.00
11053;BME280;55230;42.602;23.470;2022-12-29T04:03:42;94370.66;;;1.83;100.00
11053;BME280;55230;42.602;23.470;2022-12-29T04:06:09;94372.16;;;1.77;100.00
11053;BME280;55230;42.602;23.470;2022-12-29T04:08:37;94391.03;;;1.65;100.00
11053;BME280;55230;42.602;23.470;2022-12-29T04:11:04;94370.78;;;1.47;100.00
11053;BME280;55230;42.602;23.470;2022-12-29T04:13:31;94325.75;;;1.17;100.00
11053;BME280;55230;42.602;23.470;2022-12-29T04:15:58;94100.41;;;-0.26;100.00
11053;BME280;55230;42.602;23.470;2022-12-29T04:18:24;94371.09;;;1.42;100.00
11053;BME280;55230;42.602;23.470;2022-12-29T04:20:51;94365.69;;;1.28;100.00
11053;BME280;55230;42.602;23.470;2022-12-29T04:23:30;94339.59;;;0.96;100.00
11053;BME280;55230;42.602;23.470;2022-12-29T04:25:58;94080.25;;;-0.67;100.00
11053;BME280;55230;42.602;23.470;2022-12-29T04:28:25;94369.31;;;1.12;100.00
11053;BME280;55230;42.602;23.470;2022-12-29T04:30:53;94348.53;;;0.81;100.00
11053;BME280;55230;42.602;23.470;2022-12-29T04:33:20;94374.25;;;1.14;100.00
11053;BME280;55230;42.602;23.470;2022-12-29T04:35:47;93975.00;;;-1.47;100.00
11053;BME280;55230;42.602;23.470;2022-12-29T04:38:14;94132.28;;;-0.52;100.00
11053;BME280;55230;42.602;23.470;2022-12-29T04:40:42;94373.19;;;1.18;100.00
11053;BME280;55230;42.602;23.470;2022-12-29T04:43:11;94378.06;;;1.13;100.00
11053;BME280;55230;42.602;23.470;2022-12-29T04:45:38;94377.34;;;1.19;100.00
11053;BME280;55230;42.602;23.470;2022-12-29T04:48:05;94260.53;;;0.06;100.00
11053;BME280;55230;42.602;23.470;2022-12-29T04:50:32;94301.28;;;0.61;100.00
11053;BME280;55230;42.602;23.470;2022-12-29T04:52:59;94395.59;;;1.25;100.00
11053;BME280;55230;42.602;23.470;2022-12-29T04:55:25;94429.03;;;1.26;100.00
11053;BME280;55230;42.602;23.470;2022-12-29T04:57:52;94353.56;;;0.93;100.00
11053;BME280;55230;42.602;23.470;2022-12-29T05:00:21;94422.56;;;1.27;100.00
11053;BME280;55230;42.602;23.470;2022-12-29T05:02:47;94434.34;;;1.26;100.00
11053;BME280;55230;42.602;23.470;2022-12-29T05:05:14;94407.34;;;1.20;100.00
11053;BME280;55230;42.602;23.470;2022-12-29T05:07:41;94411.59;;;1.28;100.00
11053;BME280;55230;42.602;23.470;2022-12-29T05:10:08;94000.56;;;-1.55;100.00
11053;BME280;55230;42.602;23.470;2022-12-29T05:12:37;94301.38;;;0.68;100.00
11053;BME280;55230;42.602;23.470;2022-12-29T05:15:05;94405.97;;;1.37;100.00
11053;BME280;55230;42.602;23.470;2022-12-29T05:17:34;94344.16;;;0.99;100.00
11053;BME280;55230;42.602;23.470;2022-12-29T05:20:01;94420.59;;;1.57;100.00
11053;BME280;55230;42.602;23.470;2022-12-29T05:22:28;94256.59;;;0.63;100.00
11053;BME280;55230;42.602;23.470;2022-12-29T05:24:54;94404.75;;;1.71;100.00
11053;BME280;55230;42.602;23.470;2022-12-29T05:27:21;94406.34;;;1.79;100.00
11053;BME280;55230;42.602;23.470;2022-12-29T05:29:48;94335.41;;;1.39;100.00
11053;BME280;55230;42.602;23.470;2022-12-29T05:32:15;94401.09;;;1.89;100.00
11053;BME280;55230;42.602;23.470;2022-12-29T05:34:43;94422.69;;;1.81;100.00
11053;BME280;55230;42.602;23.470;2022-12-29T05:37:09;94396.41;;;1.72;100.00
11053;BME280;55230;42.602;23.470;2022-12-29T05:39:36;94399.66;;;2.02;100.00
11053;BME280;55230;42.602;23.470;2022-12-29T05:42:03;94401.63;;;2.16;100.00
11053;BME280;55230;42.602;23.470;2022-12-29T05:44:30;93909.13;;;-1.59;100.00
11053;BME280;55230;42.602;23.470;2022-12-29T05:46:56;94378.22;;;1.78;100.00
11053;BME280;55230;42.602;23.470;2022-12-29T05:49:23;94210.91;;;0.43;100.00
11053;BME280;55230;42.602;23.470;2022-12-29T05:51:51;94327.84;;;1.41;100.00
11053;BME280;55230;42.602;23.470;2022-12-29T05:54:18;94410.53;;;2.41;100.00
11053;BME280;55230;42.602;23.470;2022-12-29T05:56:45;94202.09;;;1.27;100.00
11053;BME280;55230;42.602;23.470;2022-12-29T05:59:11;94416.72;;;2.63;100.00
11053;BME280;55230;42.602;23.470;2022-12-29T06:01:38;94440.31;;;2.64;100.00
11053;BME280;55230;42.602;23.470;2022-12-29T06:04:05;94418.31;;;2.74;100.00
11053;BME280;55230;42.602;23.470;2022-12-29T06:06:32;94465.56;;;2.91;100.00
11053;BME280;55230;42.602;23.470;2022-12-29T06:09:00;94421.06;;;3.06;100.00
11053;BME280;55230;42.602;23.470;2022-12-29T06:11:26;94400.00;;;2.62;100.00
11053;BME280;55230;42.602;23.470;2022-12-29T06:13:53;94292.56;;;2.16;100.00
11053;BME280;55230;42.602;23.470;2022-12-29T06:16:20;94411.53;;;2.94;100.00
11053;BME280;55230;42.602;23.470;2022-12-29T06:18:47;94166.50;;;1.35;100.00
11053;BME280;55230;42.602;23.470;2022-12-29T06:21:13;94368.09;;;2.69;100.00
11053;BME280;55230;42.602;23.470;2022-12-29T06:23:40;94381.09;;;2.99;100.00
11053;BME280;55230;42.602;23.470;2022-12-29T06:26:08;94298.63;;;2.13;100.00
11053;BME280;55230;42.602;23.470;2022-12-29T06:28:35;94429.03;;;2.99;100.00
11053;BME280;55230;42.602;23.470;2022-12-29T06:31:02;94430.59;;;3.00;100.00
11053;BME280;55230;42.602;23.470;2022-12-29T06:33:29;94325.41;;;2.48;100.00
11053;BME280;55230;42.602;23.470;2022-12-29T06:35:55;94415.41;;;3.21;100.00
11053;BME280;55230;42.602;23.470;2022-12-29T06:38:22;94435.84;;;2.82;100.00
11053;BME280;55230;42.602;23.470;2022-12-29T06:40:49;94435.50;;;2.94;100.00
11053;BME280;55230;42.602;23.470;2022-12-29T06:43:17;94437.44;;;3.01;100.00
11053;BME280;55230;42.602;23.470;2022-12-29T06:45:44;94150.78;;;1.12;100.00
11053;BME280;55230;42.602;23.470;2022-12-29T06:48:11;94434.78;;;3.04;100.00
11053;BME280;55230;42.602;23.470;2022-12-29T06:50:37;94432.97;;;3.29;100.00
11053;BME280;55230;42.602;23.470;2022-12-29T06:53:04;94138.81;;;1.46;100.00
11053;BME280;55230;42.602;23.470;2022-12-29T06:55:31;94440.25;;;3.46;100.00
11053;BME280;55230;42.602;23.470;2022-12-29T06:57:58;94439.47;;;3.42;100.00
11053;BME280;55230;42.602;23.470;2022-12-29T07:00:27;94265.63;;;2.31;100.00
11053;BME280;55230;42.602;23.470;2022-12-29T07:02:55;94439.31;;;2.93;100.00
11053;BME280;55230;42.602;23.470;2022-12-29T07:05:23;94430.06;;;2.66;100.00
11053;BME280;55230;42.602;23.470;2022-12-29T07:07:50;94392.38;;;2.64;100.00
11053;BME280;55230;42.602;23.470;2022-12-29T07:10:17;94044.53;;;0.40;100.00
11053;BME280;55230;42.602;23.470;2022-12-29T07:12:44;94301.84;;;1.75;100.00
11053;BME280;55230;42.602;23.470;2022-12-29T07:15:11;94292.09;;;1.93;100.00
11053;BME280;55230;42.602;23.470;2022-12-29T07:17:40;94156.84;;;1.12;100.00
11053;BME280;55230;42.602;23.470;2022-12-29T07:20:07;94257.91;;;1.30;100.00
11053;BME280;55230;42.602;23.470;2022-12-29T07:22:34;94221.88;;;2.08;100.00
11053;BME280;55230;42.602;23.470;2022-12-29T07:25:02;94472.19;;;3.36;100.00
11053;BME280;55230;42.602;23.470;2022-12-29T07:27:29;94446.72;;;3.67;100.00
11053;BME280;55230;42.602;23.470;2022-12-29T07:29:56;94459.69;;;3.79;100.00
11053;BME280;55230;42.602;23.470;2022-12-29T07:32:22;94452.09;;;4.02;100.00
11053;BME280;55230;42.602;23.470;2022-12-29T07:34:51;94453.63;;;4.27;100.00
11053;BME280;55230;42.602;23.470;2022-12-29T07:37:17;94459.28;;;4.47;100.00
11053;BME280;55230;42.602;23.470;2022-12-29T07:39:44;94426.53;;;4.32;100.00
11053;BME280;55230;42.602;23.470;2022-12-29T07:42:11;94299.31;;;3.45;100.00
11053;BME280;55230;42.602;23.470;2022-12-29T07:44:38;94447.06;;;4.70;100.00
11053;BME280;55230;42.602;23.470;2022-12-29T07:47:05;94365.94;;;4.12;100.00
11053;BME280;55230;42.602;23.470;2022-12-29T07:49:32;94295.88;;;3.51;100.00
11053;BME280;55230;42.602;23.470;2022-12-29T07:52:00;94457.03;;;4.35;100.00
11053;BME280;55230;42.602;23.470;2022-12-29T07:54:26;94460.06;;;4.54;100.00
11053;BME280;55230;42.602;23.470;2022-12-29T07:56:53;94343.84;;;3.94;100.00
11053;BME280;55230;42.602;23.470;2022-12-29T07:59:20;94212.06;;;3.52;100.00
11053;BME280;55230;42.602;23.470;2022-12-29T08:01:47;94436.59;;;5.08;100.00
11053;BME280;55230;42.602;23.470;2022-12-29T08:04:14;94362.09;;;4.16;100.00
11053;BME280;55230;42.602;23.470;2022-12-29T08:06:41;94408.09;;;4.77;100.00
11053;BME280;55230;42.602;23.470;2022-12-29T08:09:11;94406.84;;;5.02;100.00
11053;BME280;55230;42.602;23.470;2022-12-29T08:11:38;94482.06;;;5.04;100.00
11053;BME280;55230;42.602;23.470;2022-12-29T08:14:05;94339.25;;;4.01;100.00
11053;BME280;55230;42.602;23.470;2022-12-29T08:16:33;94505.94;;;5.53;100.00
11053;BME280;55230;42.602;23.470;2022-12-29T08:19:00;94220.03;;;3.74;100.00
11053;BME280;55230;42.602;23.470;2022-12-29T08:21:27;94198.31;;;3.79;100.00
11053;BME280;55230;42.602;23.470;2022-12-29T08:23:54;94475.38;;;5.47;100.00
11053;BME280;55230;42.602;23.470;2022-12-29T08:26:22;94484.19;;;5.44;100.00
11053;BME280;55230;42.602;23.470;2022-12-29T08:28:52;94470.09;;;5.33;100.00
11053;BME280;55230;42.602;23.470;2022-12-29T08:31:18;94415.59;;;5.13;100.00
11053;BME280;55230;42.602;23.470;2022-12-29T08:33:45;94429.25;;;5.29;100.00
11053;BME280;55230;42.602;23.470;2022-12-29T08:36:12;94385.59;;;4.74;100.00
11053;BME280;55230;42.602;23.470;2022-12-29T08:38:39;94471.59;;;5.41;100.00
11053;BME280;55230;42.602;23.470;2022-12-29T08:41:06;94464.81;;;5.26;100.00
11053;BME280;55230;42.602;23.470;2022-12-29T08:43:34;94217.78;;;3.58;100.00
11053;BME280;55230;42.602;23.470;2022-12-29T08:46:01;94424.81;;;5.02;100.00
11053;BME280;55230;42.602;23.470;2022-12-29T08:48:27;94455.59;;;5.34;100.00
11053;BME280;55230;42.602;23.470;2022-12-29T08:50:54;94302.16;;;4.35;100.00
11053;BME280;55230;42.602;23.470;2022-12-29T08:53:21;94413.38;;;4.94;100.00
11053;BME280;55230;42.602;23.470;2022-12-29T08:55:55;94349.09;;;4.36;100.00
11053;BME280;55230;42.602;23.470;2022-12-29T08:58:22;94428.38;;;4.67;100.00
11053;BME280;55230;42.602;23.470;2022-12-29T09:00:52;94414.66;;;4.44;100.00
11053;BME280;55230;42.602;23.470;2022-12-29T09:03:18;94436.72;;;4.83;100.00
11053;BME280;55230;42.602;23.470;2022-12-29T09:05:47;94455.72;;;5.03;100.00
11053;BME280;55230;42.602;23.470;2022-12-29T09:08:14;94426.66;;;5.15;100.00
11053;BME280;55230;42.602;23.470;2022-12-29T09:10:41;94378.94;;;5.10;100.00
11053;BME280;55230;42.602;23.470;2022-12-29T09:13:08;94181.28;;;4.38;100.00
11053;BME280;55230;42.602;23.470;2022-12-29T09:15:35;94457.28;;;6.31;100.00
11053;BME280;55230;42.602;23.470;2022-12-29T09:18:03;94449.81;;;6.05;99.84
11053;BME280;55230;42.602;23.470;2022-12-29T09:20:30;94427.38;;;6.36;99.36
11053;BME280;55230;42.602;23.470;2022-12-29T09:22:57;94435.84;;;6.31;97.71
11053;BME280;55230;42.602;23.470;2022-12-29T09:25:24;94343.16;;;5.52;98.10
11053;BME280;55230;42.602;23.470;2022-12-29T09:27:51;94410.56;;;5.88;99.91
11053;BME280;55230;42.602;23.470;2022-12-29T09:30:20;94269.19;;;4.73;100.00
11053;BME280;55230;42.602;23.470;2022-12-29T09:32:48;94345.44;;;5.53;100.00
11053;BME280;55230;42.602;23.470;2022-12-29T09:35:19;94185.09;;;4.30;100.00
11053;BME280;55230;42.602;23.470;2022-12-29T09:37:46;94409.06;;;5.87;100.00
11053;BME280;55230;42.602;23.470;2022-12-29T09:40:25;94436.28;;;6.26;99.83
11053;BME280;55230;42.602;23.470;2022-12-29T09:45:45;94427.41;;;5.84;100.00
11053;BME280;55230;42.602;23.470;2022-12-29T09:48:17;94429.13;;;6.12;100.00
11053;BME280;55230;42.602;23.470;2022-12-29T09:50:48;94453.38;;;6.39;100.00
11053;BME280;55230;42.602;23.470;2022-12-29T09:53:20;94399.72;;;6.05;98.94
11053;BME280;55230;42.602;23.470;2022-12-29T09:55:50;94394.81;;;6.00;99.39
11053;BME280;55230;42.602;23.470;2022-12-29T09:58:22;94328.22;;;6.06;99.35
11053;BME280;55230;42.602;23.470;2022-12-29T10:00:54;94353.88;;;6.74;96.69
11053;BME280;55230;42.602;23.470;2022-12-29T10:03:25;94422.50;;;7.58;94.58
11053;BME280;55230;42.602;23.470;2022-12-29T10:05:58;94293.78;;;6.71;92.73
11053;BME280;55230;42.602;23.470;2022-12-29T10:08:36;94378.16;;;7.50;91.58
11053;BME280;55230;42.602;23.470;2022-12-29T10:11:15;94400.94;;;7.65;90.17
11053;BME280;55230;42.602;23.470;2022-12-29T10:13:57;94261.69;;;6.64;90.50
11053;BME280;55230;42.602;23.470;2022-12-29T10:16:34;94410.44;;;7.13;92.50
11053;BME280;55230;42.602;23.470;2022-12-29T10:19:24;94391.88;;;7.29;93.01
11053;BME280;55230;42.602;23.470;2022-12-29T10:22:06;94430.84;;;7.67;91.45
11053;BME280;55230;42.602;23.470;2022-12-29T10:24:38;94349.78;;;7.49;91.62
11053;BME280;55230;42.602;23.470;2022-12-29T10:27:10;94417.94;;;8.08;89.12
11053;BME280;55230;42.602;23.470;2022-12-29T10:29:41;94268.00;;;7.07;88.51
11053;BME280;55230;42.602;23.470;2022-12-29T10:32:20;94384.16;;;7.84;89.63
11053;BME280;55230;42.602;23.470;2022-12-29T10:34:49;94309.31;;;7.63;88.97
11053;BME280;55230;42.602;23.470;2022-12-29T10:37:27;94405.69;;;8.31;87.49
11053;BME280;55230;42.602;23.470;2022-12-29T10:39:56;94154.38;;;6.75;86.96
11053;BME280;55230;42.602;23.470;2022-12-29T10:42:26;94402.28;;;8.50;87.28
11053;BME280;55230;42.602;23.470;2022-12-29T10:44:54;94383.34;;;7.87;88.58
11053;BME280;55230;42.602;23.470;2022-12-29T10:47:24;94212.09;;;6.83;88.21
11053;BME280;55230;42.602;23.470;2022-12-29T10:49:53;94291.56;;;7.46;87.90
11053;BME280;55230;42.602;23.470;2022-12-29T10:52:22;94413.84;;;8.00;88.37
11053;BME280;55230;42.602;23.470;2022-12-29T10:54:53;94356.53;;;7.61;89.50
11053;BME280;55230;42.602;23.470;2022-12-29T10:57:26;94378.16;;;8.00;89.03
11053;BME280;55230;42.602;23.470;2022-12-29T10:59:53;94340.50;;;7.80;89.12
11053;BME280;55230;42.602;23.470;2022-12-29T11:02:40;94372.09;;;7.96;88.64
11053;BME280;55230;42.602;23.470;2022-12-29T11:05:16;94251.28;;;7.00;89.26
11053;BME280;55230;42.602;23.470;2022-12-29T11:07:48;94307.38;;;7.41;90.14
11053;BME280;55230;42.602;23.470;2022-12-29T11:10:19;94356.38;;;8.17;90.05
11053;BME280;55230;42.602;23.470;2022-12-29T11:12:57;94363.28;;;8.61;87.88
11053;BME280;55230;42.602;23.470;2022-12-29T11:15:24;94380.34;;;8.94;86.60
11053;BME280;55230;42.602;23.470;2022-12-29T11:17:53;94364.81;;;9.21;84.13
11053;BME280;55230;42.602;23.470;2022-12-29T11:20:32;94309.50;;;9.00;81.67
11053;BME280;55230;42.602;23.470;2022-12-29T11:23:01;94275.34;;;8.62;81.02
11053;BME280;55230;42.602;23.470;2022-12-29T11:25:29;94311.91;;;9.14;81.44
11053;BME280;55230;42.602;23.470;2022-12-29T11:27:57;94383.53;;;9.44;81.27
11053;BME280;55230;42.602;23.470;2022-12-29T11:30:27;94169.25;;;8.31;80.70
11053;BME280;55230;42.602;23.470;2022-12-29T11:32:56;94343.53;;;9.78;80.31
11053;BME280;55230;42.602;23.470;2022-12-29T11:35:33;94316.84;;;9.84;79.89
11053;BME280;55230;42.602;23.470;2022-12-29T11:38:02;94305.75;;;9.82;79.59
11053;BME280;55230;42.602;23.470;2022-12-29T11:40:30;94362.22;;;10.01;78.03
11053;BME280;55230;42.602;23.470;2022-12-29T11:43:00;94347.50;;;10.06;78.11
11053;BME280;55230;42.602;23.470;2022-12-29T11:45:30;94300.16;;;9.89;77.66
11053;BME280;55230;42.602;23.470;2022-12-29T11:48:01;94303.63;;;10.05;76.82
11053;BME280;55230;42.602;23.470;2022-12-29T11:50:34;94342.50;;;10.36;76.55
11053;BME280;55230;42.602;23.470;2022-12-29T11:53:07;94330.66;;;10.02;76.75
11053;BME280;55230;42.602;23.470;2022-12-29T11:55:36;94332.75;;;10.26;77.58
11053;BME280;55230;42.602;23.470;2022-12-29T11:58:04;94328.16;;;10.39;76.89
11053;BME280;55230;42.602;23.470;2022-12-29T12:00:33;94244.09;;;9.84;76.25
11053;BME280;55230;42.602;23.470;2022-12-29T12:03:02;94258.59;;;9.90;75.75
11053;BME280;55230;42.602;23.470;2022-12-29T12:05:35;94321.63;;;10.40;76.29
11053;BME280;55230;42.602;23.470;2022-12-29T12:08:10;94322.78;;;10.39;76.88
11053;BME280;55230;42.602;23.470;2022-12-29T12:10:43;94269.66;;;10.08;76.62
11053;BME280;55230;42.602;23.470;2022-12-29T12:13:18;94324.19;;;10.44;76.12
11053;BME280;55230;42.602;23.470;2022-12-29T12:15:50;94271.22;;;10.09;76.19
11053;BME280;55230;42.602;23.470;2022-12-29T12:18:28;94260.94;;;9.88;77.45
11053;BME280;55230;42.602;23.470;2022-12-29T12:21:04;93859.06;;;7.35;76.54
11053;BME280;55230;42.602;23.470;2022-12-29T12:23:38;94315.91;;;10.06;77.38
11053;BME280;55230;42.602;23.470;2022-12-29T12:26:11;94266.41;;;9.68;78.59
11053;BME280;55230;42.602;23.470;2022-12-29T12:28:48;94228.41;;;9.50;78.08
11053;BME280;55230;42.602;23.470;2022-12-29T12:31:24;94259.88;;;9.69;79.45
11053;BME280;55230;42.602;23.470;2022-12-29T12:33:57;94299.22;;;10.27;78.78
11053;BME280;55230;42.602;23.470;2022-12-29T12:37:00;94263.88;;;9.93;78.88
11053;BME280;55230;42.602;23.470;2022-12-29T12:39:41;94293.63;;;9.74;79.29
11053;BME280;55230;42.602;23.470;2022-12-29T12:42:36;93818.69;;;6.71;79.10
11053;BME280;55230;42.602;23.470;2022-12-29T12:45:34;94097.88;;;8.46;80.22
11053;BME280;55230;42.602;23.470;2022-12-29T12:48:30;93800.00;;;6.48;79.61
11053;BME280;55230;42.602;23.470;2022-12-29T12:51:20;94353.63;;;9.74;80.15
11053;BME280;55230;42.602;23.470;2022-12-29T12:54:03;93986.31;;;7.34;80.93
11053;BME280;55230;42.602;23.470;2022-12-29T12:56:44;93878.59;;;5.99;82.09
11053;BME280;55230;42.602;23.470;2022-12-29T12:59:28;94327.56;;;9.00;83.04
11053;BME280;55230;42.602;23.470;2022-12-29T13:02:02;94309.81;;;8.67;85.18
11053;BME280;55230;42.602;23.470;2022-12-29T13:04:48;94307.75;;;8.55;85.21
11053;BME280;55230;42.602;23.470;2022-12-29T13:07:28;94150.66;;;7.38;86.01
11053;BME280;55230;42.602;23.470;2022-12-29T13:10:13;94130.72;;;6.70;87.64
11053;BME280;55230;42.602;23.470;2022-12-29T13:12:49;94246.38;;;7.68;88.14
11053;BME280;55230;42.602;23.470;2022-12-29T13:15:30;94306.47;;;7.97;88.97